Time;durP1;ratioP1;P1;durP2;ratioP2;P2;SDS_P1;SDS_P2;PMS_P1;PMS_P2;Temp;Humidity;BMP_temperature;BMP_pressure;BME280_temperature;BME280_humidity;BME280_pressure;Samples;Min_cycle;Max_cycle;Signal;HPM_P1;HPM_P2
2022/04/23 00:02:11;;;;;;;3.77;1.10;;;;;;;17.26;48.88;98102.94;4939681;29;20546;-91
2022/04/23 00:04:37;;;;;;;1.80;1.10;;;;;;;17.39;48.45;98091.00;4939573;29;20269;-93
2022/04/23 00:07:05;;;;;;;1.77;0.80;;;;;;;17.37;47.89;98093.00;4956558;28;20181;-93
2022/04/23 00:09:30;;;;;;;3.87;1.40;;;;;;;17.37;48.46;98082.38;4955720;29;20180;-93
2022/04/23 00:11:57;;;;;;;2.10;1.00;;;;;;;17.37;48.20;98085.03;4939574;29;20212;-93
2022/04/23 00:14:22;;;;;;;2.50;1.03;;;;;;;17.40;48.24;98074.13;4956606;29;20197;-91
2022/04/23 00:16:51;;;;;;;3.37;1.63;;;;;;;17.26;48.49;98076.44;4955825;28;20181;-91
2022/04/23 00:19:20;;;;;;;2.63;1.03;;;;;;;17.23;48.78;98074.94;4939508;29;20185;-92
2022/04/23 00:21:47;;;;;;;2.67;1.40;;;;;;;17.00;49.15;98068.38;4939261;29;20189;-93
2022/04/23 00:24:16;;;;;;;2.73;1.07;;;;;;;17.07;49.18;98061.50;4956362;29;20196;-92
2022/04/23 00:26:41;;;;;;;1.97;1.27;;;;;;;17.03;49.16;98066.25;4956123;29;20559;-95
2022/04/23 00:29:07;;;;;;;2.50;1.00;;;;;;;17.02;49.28;98066.41;4939367;29;20228;-92
2022/04/23 00:31:32;;;;;;;2.80;1.27;;;;;;;17.08;49.32;98068.47;4939442;29;20247;-93
2022/04/23 00:34:00;;;;;;;4.67;1.53;;;;;;;17.04;49.37;98069.72;4956260;29;20594;-94
2022/04/23 00:36:28;;;;;;;1.53;0.93;;;;;;;17.07;49.40;98070.28;4939147;29;20181;-93
2022/04/23 00:38:54;;;;;;;2.40;1.10;;;;;;;17.05;49.56;98068.75;4955838;29;20637;-92
2022/04/23 00:44:05;;;;;;;2.67;1.23;;;;;;;17.11;49.48;98079.56;4956521;29;20183;-91
2022/04/23 00:46:34;;;;;;;2.90;1.33;;;;;;;17.02;49.44;98079.63;4955882;29;20177;-93
2022/04/23 00:49:00;;;;;;;2.40;1.60;;;;;;;17.12;49.38;98069.81;4956022;29;20185;-93
2022/04/23 00:51:32;;;;;;;2.60;1.30;;;;;;;17.14;49.38;98076.66;4955596;28;20184;-94
2022/04/23 00:54:04;;;;;;;2.33;1.43;;;;;;;17.02;49.67;98069.03;4954781;29;20205;-95
2022/04/23 00:56:32;;;;;;;2.47;0.93;;;;;;;17.02;49.98;98069.03;4955662;29;20641;-95
2022/04/23 00:58:57;;;;;;;2.10;1.10;;;;;;;17.01;50.19;98064.72;4955774;29;20181;-95
2022/04/23 01:01:26;;;;;;;1.60;1.00;;;;;;;16.77;50.85;98065.25;4938878;29;20200;-94
2022/04/23 01:03:53;;;;;;;2.93;1.00;;;;;;;16.78;50.84;98064.28;4938920;29;20185;-92
2022/04/23 01:06:20;;;;;;;2.47;1.50;;;;;;;16.88;51.09;98061.56;4938898;29;20234;-92
2022/04/23 01:08:48;;;;;;;2.80;1.53;;;;;;;16.88;51.04;98046.53;4955634;29;20181;-94
2022/04/23 01:11:13;;;;;;;2.77;1.10;;;;;;;16.88;51.13;98041.25;4955365;29;20261;-93
2022/04/23 01:13:43;;;;;;;2.50;1.13;;;;;;;16.94;51.28;98042.47;4938693;29;20206;-93
2022/04/23 01:16:11;;;;;;;1.77;0.73;;;;;;;16.75;51.03;98040.75;4955239;28;20181;-92
2022/04/23 01:18:46;;;;;;;1.80;1.00;;;;;;;16.73;51.67;98036.56;4938574;29;20185;-95
2022/04/23 01:21:13;;;;;;;2.73;1.50;;;;;;;16.81;51.33;98034.03;4954553;29;20266;-93
2022/04/23 01:23:42;;;;;;;2.43;1.20;;;;;;;16.87;51.11;98030.81;4938561;29;20193;-93
2022/04/23 01:26:09;;;;;;;2.47;1.50;;;;;;;16.85;51.57;98030.13;4955455;29;20177;-93
2022/04/23 01:28:36;;;;;;;4.03;1.90;;;;;;;16.79;51.13;98034.19;4954697;29;20652;-93
2022/04/23 01:31:16;;;;;;;1.80;1.10;;;;;;;16.91;50.88;98014.47;4955597;29;20275;-95
2022/04/23 01:33:41;;;;;;;2.37;1.10;;;;;;;16.95;50.70;98023.81;4954406;29;20594;-92
2022/04/23 01:36:07;;;;;;;7.07;1.60;;;;;;;17.04;50.75;98014.13;4955201;29;20173;-90
2022/04/23 01:38:56;;;;;;;2.03;1.00;;;;;;;16.96;51.03;98020.16;4937072;29;20279;-93
2022/04/23 01:41:25;;;;;;;2.73;1.53;;;;;;;16.86;51.31;98021.19;4933989;29;20645;-92
2022/04/23 01:43:50;;;;;;;4.97;1.00;;;;;;;16.82;51.33;98022.47;4919389;29;20212;-93
2022/04/23 01:46:17;;;;;;;2.67;1.40;;;;;;;16.63;52.13;98017.25;4936482;29;20630;-93
2022/04/23 01:48:57;;;;;;;;;;;;;;;;;;;;;
2022/04/23 01:51:27;;;;;;;3.63;2.13;;;;;;;16.49;52.65;98005.31;4935532;29;20230;-93
2022/04/23 01:53:53;;;;;;;2.93;1.10;;;;;;;16.48;52.38;98003.66;4900001;29;20277;-94
2022/04/23 01:56:23;;;;;;;1.90;1.10;;;;;;;16.61;52.69;98006.00;4923882;29;20630;-95
2022/04/23 01:58:53;;;;;;;3.13;1.37;;;;;;;16.58;52.25;97994.75;4919231;29;20189;-94
2022/04/23 02:01:24;;;;;;;2.73;1.47;;;;;;;16.64;52.15;98003.06;4919502;29;20185;-94
2022/04/23 02:04:06;;;;;;;2.47;1.50;;;;;;;16.54;52.54;97996.00;4919237;29;20280;-94
2022/04/23 02:06:34;;;;;;;2.57;1.50;;;;;;;16.47;52.83;98000.16;4919884;29;20170;-95
2022/04/23 02:09:03;;;;;;;3.70;1.47;;;;;;;16.53;53.00;97996.16;4935817;29;20638;-93
2022/04/23 02:11:31;;;;;;;2.57;1.53;;;;;;;16.49;52.83;97998.22;4919263;29;20185;-94
2022/04/23 02:13:56;;;;;;;4.07;1.30;;;;;;;16.52;52.86;97997.09;4935821;29;20672;-94
2022/04/23 02:16:27;;;;;;;2.57;1.20;;;;;;;16.54;52.79;98000.44;4917782;29;20185;-94
2022/04/23 02:19:13;;;;;;;3.77;1.20;;;;;;;16.67;52.54;98014.19;4918236;29;20186;-93
2022/04/23 02:21:39;;;;;;;5.30;1.37;;;;;;;16.66;52.34;98016.97;4917391;29;20789;-94
2022/04/23 02:24:08;;;;;;;1.97;1.13;;;;;;;16.57;53.14;98016.88;4935367;29;20257;-95
2022/04/23 02:26:36;;;;;;;4.03;1.10;;;;;;;16.45;53.79;98017.16;4917954;29;20182;-92
2022/04/23 02:29:07;;;;;;;5.27;1.30;;;;;;;16.39;53.85;98018.56;4917691;29;20182;-93
2022/04/23 02:31:32;;;;;;;5.53;1.57;;;;;;;16.45;54.01;98031.22;4933983;29;20182;-92
2022/04/23 02:33:58;;;;;;;3.43;1.20;;;;;;;16.67;53.46;98027.41;4933767;29;20623;-92
2022/04/23 02:36:23;;;;;;;2.13;1.30;;;;;;;16.73;53.08;98026.81;4933646;29;20339;-91
2022/04/23 02:38:50;;;;;;;4.73;1.93;;;;;;;16.86;52.73;98042.38;4916935;29;20181;-92
2022/04/23 02:41:15;;;;;;;4.37;1.40;;;;;;;16.99;52.33;98038.41;4936118;29;20673;-91
2022/04/23 02:43:43;;;;;;;3.73;1.87;;;;;;;17.03;52.42;98044.25;4937525;29;20181;-92
2022/04/23 02:46:08;;;;;;;6.60;2.30;;;;;;;16.87;52.62;98041.41;4938981;29;20269;-92
2022/04/23 02:48:35;;;;;;;2.87;1.23;;;;;;;16.94;52.56;98053.06;4938622;29;20208;-92
2022/04/23 02:51:01;;;;;;;3.17;1.77;;;;;;;16.96;52.14;98066.97;4921910;29;20253;-92
2022/04/23 02:53:28;;;;;;;3.93;1.60;;;;;;;16.62;53.64;98066.69;4939656;29;20234;-93
2022/04/23 02:55:57;;;;;;;4.73;1.90;;;;;;;16.52;54.33;98068.50;4938333;29;20174;-92
2022/04/23 02:58:25;;;;;;;5.40;1.77;;;;;;;16.35;54.88;98062.13;4938626;29;20189;-92
2022/04/23 03:00:52;;;;;;;3.17;1.63;;;;;;;16.41;54.89;98071.31;4921702;29;20193;-92
2022/04/23 03:03:28;;;;;;;2.53;1.50;;;;;;;16.46;54.44;98069.91;4937706;29;20189;-92
2022/04/23 03:05:54;;;;;;;2.77;1.23;;;;;;;16.21;55.26;98078.47;4937569;29;20229;-92
2022/04/23 03:08:23;;;;;;;5.83;1.83;;;;;;;16.29;54.96;98078.59;4937422;29;20185;-92
2022/04/23 03:10:49;;;;;;;2.43;1.23;;;;;;;16.27;53.81;98092.94;4921921;29;20565;-93
2022/04/23 03:13:15;;;;;;;3.10;1.50;;;;;;;16.16;54.42;98093.06;4921515;29;20194;-93
2022/04/23 03:15:44;;;;;;;3.17;1.70;;;;;;;16.14;54.25;98087.91;4938250;29;20190;-93
2022/04/23 03:18:12;;;;;;;3.27;1.33;;;;;;;16.03;55.21;98106.59;4938413;29;20181;-92
2022/04/23 03:20:39;;;;;;;5.20;1.73;;;;;;;16.03;55.07;98111.88;4921543;29;20270;-93
2022/04/23 03:23:05;;;;;;;1.97;1.37;;;;;;;15.86;55.10;98107.25;4921946;29;20184;-92
2022/04/23 03:25:34;;;;;;;4.87;1.77;;;;;;;15.93;55.33;98106.56;4921426;29;20655;-93
2022/04/23 03:28:00;;;;;;;3.37;1.47;;;;;;;15.80;55.19;98116.56;4937998;29;20180;-92
2022/04/23 03:30:26;;;;;;;4.50;1.43;;;;;;;15.80;55.29;98103.34;4936963;29;20255;-93
2022/04/23 03:32:52;;;;;;;1.60;1.40;;;;;;;15.76;55.42;98115.19;4938161;29;20191;-92
2022/04/23 03:35:18;;;;;;;5.20;1.63;;;;;;;15.62;56.25;98127.94;4937851;29;20659;-93
2022/04/23 03:37:43;;;;;;;3.10;1.37;;;;;;;15.56;56.33;98131.16;4937742;29;20549;-92
2022/04/23 03:40:10;;;;;;;5.57;1.13;;;;;;;15.52;56.18;98122.66;4938361;29;20212;-92
2022/04/23 03:42:36;;;;;;;4.00;1.80;;;;;;;15.44;56.56;98129.53;4938046;29;20174;-92
2022/04/23 03:45:04;;;;;;;5.63;1.40;;;;;;;15.42;56.64;98124.41;4921042;29;20187;-92
2022/04/23 03:47:31;;;;;;;12.53;2.33;;;;;;;15.17;57.53;98112.50;4921811;29;20188;-93
2022/04/23 03:49:57;;;;;;;3.63;2.00;;;;;;;15.18;58.06;98119.47;4936709;29;20193;-91
2022/04/23 03:52:22;;;;;;;3.80;1.60;;;;;;;15.21;57.83;98129.78;4919911;29;20195;-93
2022/04/23 03:54:48;;;;;;;5.83;1.60;;;;;;;15.20;58.07;98127.25;4937368;29;20211;-92
2022/04/23 03:57:13;;;;;;;3.67;2.10;;;;;;;15.13;58.40;98099.72;4920763;29;20194;-92
2022/04/23 03:59:38;;;;;;;3.37;1.77;;;;;;;15.23;58.50;98119.91;4937406;29;20625;-91
2022/04/23 04:02:05;;;;;;;5.03;2.20;;;;;;;15.28;58.25;98128.25;4937238;29;20622;-91
2022/04/23 04:04:33;;;;;;;4.20;2.43;;;;;;;15.18;57.34;98124.75;4937301;29;20181;-93
2022/04/23 04:07:00;;;;;;;5.83;2.47;;;;;;;15.11;57.00;98147.38;4921554;29;20581;-92
2022/04/23 04:09:27;;;;;;;4.20;2.20;;;;;;;14.87;57.76;98151.28;4937269;29;20188;-92
2022/04/23 04:12:01;;;;;;;5.90;1.70;;;;;;;14.78;58.19;98147.63;4936228;29;20196;-92
2022/04/23 04:14:27;;;;;;;2.57;1.33;;;;;;;14.65;58.96;98137.28;4937819;29;20288;-93
2022/04/23 04:16:54;;;;;;;4.10;1.43;;;;;;;14.65;59.37;98147.84;4920423;29;20187;-92
2022/04/23 04:19:19;;;;;;;3.17;1.77;;;;;;;14.66;59.81;98148.69;4937555;29;20189;-92
2022/04/23 04:21:46;;;;;;;4.37;1.97;;;;;;;14.76;58.98;98149.56;4937076;29;20179;-92
2022/04/23 04:24:13;;;;;;;3.43;2.13;;;;;;;14.90;58.84;98153.66;4920280;29;20625;-91
2022/04/23 04:26:43;;;;;;;4.00;1.70;;;;;;;14.91;59.33;98155.34;4936884;29;20182;-92
2022/04/23 04:29:10;;;;;;;9.23;3.03;;;;;;;15.00;59.86;98151.91;4936928;29;20183;-93
2022/04/23 04:31:49;;;;;;;5.00;1.80;;;;;;;15.09;59.88;98149.31;4937046;29;20178;-91
2022/04/23 04:34:19;;;;;;;4.00;2.13;;;;;;;15.41;59.41;98141.22;4936964;29;20630;-93
2022/04/23 04:37:24;;;;;;;;;;;;;;;;;;;;;
2022/04/23 04:40:16;;;;;;;4.03;1.77;;;;;;;16.06;57.46;98147.75;4937082;29;20175;-94
2022/04/23 04:42:43;;;;;;;5.20;1.73;;;;;;;16.21;55.97;98141.91;4933153;29;20184;-89
2022/04/23 04:45:10;;;;;;;6.37;1.87;;;;;;;16.33;56.09;98142.59;4947060;29;20259;-89
2022/04/23 04:47:37;;;;;;;7.77;2.50;;;;;;;16.50;54.50;98141.88;4955679;29;20624;-88
2022/04/23 04:50:04;;;;;;;5.50;2.10;;;;;;;16.52;55.01;98135.50;4952839;29;20220;-88
2022/04/23 04:52:33;;;;;;;2.57;1.60;;;;;;;16.73;54.59;98130.03;4944577;28;20197;-92
2022/04/23 04:54:59;;;;;;;4.03;1.70;;;;;;;16.99;54.12;98138.16;4919442;29;20216;-88
2022/04/23 04:57:26;;;;;;;3.37;1.83;;;;;;;17.33;53.10;98136.63;4937071;29;20268;-90
2022/04/23 04:59:53;;;;;;;3.50;1.77;;;;;;;17.69;50.89;98138.41;4919409;29;20630;-90
2022/04/23 05:02:20;;;;;;;3.20;1.83;;;;;;;18.27;49.12;98141.47;4951202;29;20614;-91
2022/04/23 05:04:46;;;;;;;5.63;1.40;;;;;;;18.73;48.45;98135.06;4938609;29;20531;-91
2022/04/23 05:07:16;;;;;;;5.00;1.90;;;;;;;19.06;47.97;98143.19;4932522;29;20583;-90
2022/04/23 05:09:42;;;;;;;3.70;2.07;;;;;;;19.26;46.53;98126.84;4943668;28;20265;-90
2022/04/23 05:12:08;;;;;;;6.73;2.10;;;;;;;19.19;46.80;98135.63;4936912;29;20177;-91
2022/04/23 05:14:35;;;;;;;3.77;1.43;;;;;;;19.28;46.54;98140.00;4938074;29;20212;-91
2022/04/23 05:17:05;;;;;;;6.43;1.83;;;;;;;19.33;46.89;98143.00;4955470;28;20176;-91
2022/04/23 05:19:32;;;;;;;5.07;1.87;;;;;;;19.42;46.20;98131.44;4955587;29;20795;-90
2022/04/23 05:21:59;;;;;;;2.90;1.33;;;;;;;19.54;46.23;98135.50;4938218;29;20192;-91
2022/04/23 05:24:24;;;;;;;7.07;1.80;;;;;;;19.57;45.86;98137.84;4955297;29;20177;-90
2022/04/23 05:26:51;;;;;;;2.47;0.90;;;;;;;19.56;45.57;98131.69;4950501;28;20203;-91
2022/04/23 05:29:19;;;;;;;3.27;1.40;;;;;;;19.58;45.63;98129.69;4957623;28;20191;-90
2022/04/23 05:31:45;;;;;;;3.30;1.33;;;;;;;19.59;46.04;98126.03;4963252;28;20707;-92
2022/04/23 05:34:12;;;;;;;4.07;2.10;;;;;;;19.67;46.24;98124.41;4968094;28;20270;-90
2022/04/23 05:36:39;;;;;;;4.10;1.47;;;;;;;19.75;46.30;98122.59;4966773;28;20184;-90
2022/04/23 05:39:05;;;;;;;4.83;2.43;;;;;;;19.75;46.65;98111.13;4957550;28;20630;-93
2022/04/23 05:41:32;;;;;;;4.63;1.60;;;;;;;19.89;46.19;98105.97;4968741;28;20688;-92
2022/04/23 05:43:59;;;;;;;3.27;1.73;;;;;;;19.98;46.38;98113.00;4954471;29;20173;-92
2022/04/23 05:46:26;;;;;;;6.07;1.27;;;;;;;20.14;45.74;98112.19;4938422;29;20173;-92
2022/04/23 05:48:53;;;;;;;3.47;1.20;;;;;;;20.30;44.25;98106.91;4954380;29;20189;-93
2022/04/23 05:51:20;;;;;;;1.60;0.70;;;;;;;20.42;42.40;98104.72;4930376;29;20181;-92
2022/04/23 05:53:47;;;;;;;2.23;1.13;;;;;;;20.50;42.30;98110.88;4937160;29;20711;-93
2022/04/23 05:56:13;;;;;;;2.10;0.77;;;;;;;20.47;41.00;98097.06;4955081;29;20267;-93
2022/04/23 05:58:40;;;;;;;3.47;1.17;;;;;;;20.54;41.47;98108.72;4937964;29;20683;-93
2022/04/23 06:01:05;;;;;;;1.57;0.90;;;;;;;20.56;41.15;98101.38;4937804;29;20243;-92
2022/04/23 06:03:32;;;;;;;1.87;1.07;;;;;;;20.56;42.05;98102.22;4930526;29;20612;-91
2022/04/23 06:05:59;;;;;;;1.70;0.80;;;;;;;20.54;42.46;98095.41;4954354;29;20181;-91
2022/04/23 06:08:26;;;;;;;2.43;0.90;;;;;;;20.62;42.31;98095.41;4952313;29;20227;-92
2022/04/23 06:10:51;;;;;;;4.50;1.03;;;;;;;20.70;42.64;98104.19;4937907;29;20593;-92
2022/04/23 06:13:18;;;;;;;1.50;0.70;;;;;;;20.79;42.29;98107.66;4937553;29;20239;-92
2022/04/23 06:15:45;;;;;;;2.07;0.97;;;;;;;20.87;42.25;98105.00;4955762;28;20200;-92
2022/04/23 06:18:11;;;;;;;2.67;1.00;;;;;;;20.89;42.73;98104.81;4958345;29;20181;-92
2022/04/23 06:20:37;;;;;;;2.93;1.30;;;;;;;21.01;42.33;98106.13;4957065;29;20177;-92
2022/04/23 06:23:04;;;;;;;5.40;1.37;;;;;;;21.09;42.41;98114.97;4941391;29;20181;-92
2022/04/23 06:25:31;;;;;;;6.47;1.20;;;;;;;21.29;42.17;98110.03;4957975;29;20193;-92
2022/04/23 06:27:58;;;;;;;1.87;0.90;;;;;;;21.43;42.29;98115.47;4957441;29;20184;-92
2022/04/23 06:30:25;;;;;;;15.20;5.83;;;;;;;21.60;41.73;98107.41;4956024;29;20193;-93
2022/04/23 06:32:51;;;;;;;7.87;2.57;;;;;;;21.81;42.43;98120.94;4957885;29;20180;-92
2022/04/23 06:35:19;;;;;;;2.43;1.33;;;;;;;22.11;41.40;98114.78;4958316;29;20205;-93
2022/04/23 06:37:47;;;;;;;1.63;1.00;;;;;;;22.34;40.96;98118.28;4941227;29;20716;-93
2022/04/23 06:40:19;;;;;;;2.90;1.10;;;;;;;22.67;40.44;98116.19;4941185;29;20185;-93
2022/04/23 06:43:06;;;;;;;;;;;;;;;;;;;;;
2022/04/23 06:45:45;;;;;;;;;;;;;;;;;;;;;
2022/04/23 06:48:29;;;;;;;1.40;0.87;;;;;;;23.07;39.08;98136.31;4957184;28;20193;-94
2022/04/23 06:50:56;;;;;;;3.23;0.97;;;;;;;23.14;39.58;98137.25;4957571;29;20212;-94
2022/04/23 06:54:06;;;;;;;;;;;;;;;;;;;;;
2022/04/23 06:56:33;;;;;;;2.53;1.30;;;;;;;22.53;38.66;98144.50;4940145;28;20207;-92
2022/04/23 06:59:00;;;;;;;1.90;0.90;;;;;;;22.52;39.15;98153.50;4974778;28;20189;-92
2022/04/23 07:01:30;;;;;;;2.27;0.90;;;;;;;22.60;40.56;98156.13;4959984;28;20188;-93
2022/04/23 07:03:57;;;;;;;3.20;0.90;;;;;;;22.57;39.25;98147.63;4960574;28;20628;-92
2022/04/23 07:06:22;;;;;;;2.70;1.20;;;;;;;22.61;40.91;98146.28;4956691;28;20195;-93
2022/04/23 07:08:51;;;;;;;2.77;0.83;;;;;;;22.88;40.48;98142.19;4973874;28;20193;-93
2022/04/23 07:11:18;;;;;;;4.40;1.10;;;;;;;23.13;41.75;98146.28;4940714;29;20240;-92
2022/04/23 07:13:45;;;;;;;2.87;1.20;;;;;;;23.31;40.32;98149.44;4957485;29;20689;-93
2022/04/23 07:16:32;;;;;;;;;;;;;;;;;;;;;
2022/04/23 07:19:13;;;;;;;3.07;1.50;;;;;;;23.24;40.94;98148.50;4936873;29;20166;-94
2022/04/23 07:21:38;;;;;;;2.30;1.30;;;;;;;23.19;41.36;98150.91;4920647;29;20193;-92
2022/04/23 07:24:05;;;;;;;4.73;1.40;;;;;;;23.33;41.85;98155.41;4937220;29;20630;-91
2022/04/23 07:26:34;;;;;;;1.97;1.20;;;;;;;23.42;38.95;98154.34;4936254;29;20186;-91
2022/04/23 07:29:00;;;;;;;3.20;1.10;;;;;;;23.57;40.44;98160.50;4936644;29;20268;-91
2022/04/23 07:31:27;;;;;;;2.97;1.00;;;;;;;23.63;37.68;98164.28;4937700;29;20210;-92
2022/04/23 07:39:37;;;;;;;1.97;1.00;;;;;;;24.01;38.31;98157.75;4972415;28;20243;-93
2022/04/23 07:42:08;;;;;;;1.93;0.80;;;;;;;24.28;37.37;98153.53;4956576;28;20181;-93
2022/04/23 07:47:20;;;;;;;8.83;1.10;;;;;;;24.80;35.92;98155.88;4950070;29;20650;-93
2022/04/23 07:49:48;;;;;;;3.70;0.93;;;;;;;24.99;36.65;98161.41;4954724;29;20260;-94
2022/04/23 07:52:16;;;;;;;2.37;0.80;;;;;;;25.11;36.13;98155.50;4956533;28;20635;-93
2022/04/23 07:54:43;;;;;;;1.70;0.90;;;;;;;25.39;36.03;98156.31;4939292;29;20567;-92
2022/04/23 07:57:10;;;;;;;3.73;1.10;;;;;;;25.39;35.40;98157.09;4947280;28;20193;-92
2022/04/23 07:59:43;;;;;;;1.50;0.83;;;;;;;25.48;35.79;98163.19;4955065;29;20196;-93
2022/04/23 08:02:09;;;;;;;2.90;1.37;;;;;;;25.33;35.48;98163.28;4955135;29;20232;-91
2022/04/23 08:04:35;;;;;;;2.07;1.00;;;;;;;25.17;34.49;98170.81;4955512;29;20177;-91
2022/04/23 08:07:03;;;;;;;3.60;1.27;;;;;;;25.13;34.74;98164.19;4954757;28;20189;-91
2022/04/23 08:09:29;;;;;;;2.23;0.93;;;;;;;25.13;34.63;98166.88;4938195;29;20271;-92
2022/04/23 08:11:55;;;;;;;9.40;4.87;;;;;;;25.04;34.17;98166.19;4955034;28;20216;-93
2022/04/23 08:14:20;;;;;;;10.40;5.27;;;;;;;24.96;34.95;98158.28;4956129;29;20201;-92
2022/04/23 08:16:48;;;;;;;3.73;2.17;;;;;;;24.86;35.79;98166.69;4955676;29;20256;-91
2022/04/23 08:19:26;;;;;;;9.57;4.47;;;;;;;24.88;35.19;98167.31;4969253;28;20184;-94
2022/04/23 08:21:51;;;;;;;11.47;4.77;;;;;;;24.80;36.76;98169.28;4975346;28;20179;-92
2022/04/23 08:24:18;;;;;;;4.83;2.53;;;;;;;24.93;37.04;98162.19;4975604;28;20546;-90
2022/04/23 08:26:44;;;;;;;5.10;1.73;;;;;;;25.11;36.53;98171.56;4958601;28;20334;-90
2022/04/23 08:31:53;;;;;;;7.30;2.97;;;;;;;25.20;37.48;98171.25;4954395;29;20180;-92
2022/04/23 08:34:22;;;;;;;3.67;2.27;;;;;;;25.17;36.03;98176.16;4962444;28;20563;-92
2022/04/23 08:36:50;;;;;;;4.60;1.27;;;;;;;25.17;36.29;98177.00;4936835;29;20177;-91
2022/04/23 08:39:18;;;;;;;6.97;2.90;;;;;;;25.19;36.35;98182.16;4958677;28;20188;-91
2022/04/23 08:41:45;;;;;;;3.30;1.33;;;;;;;25.09;36.13;98185.19;4957093;28;20326;-91
2022/04/23 08:44:11;;;;;;;2.20;1.27;;;;;;;25.09;35.86;98179.00;4974971;28;20176;-90
2022/04/23 08:46:40;;;;;;;3.53;1.00;;;;;;;25.17;35.36;98181.53;4975115;28;20180;-90
2022/04/23 08:49:14;;;;;;;2.80;1.20;;;;;;;25.19;36.38;98174.13;4968887;28;20267;-90
2022/04/23 08:51:47;;;;;;;2.23;1.27;;;;;;;25.32;34.45;98175.03;4975263;28;20243;-90
2022/04/23 08:54:14;;;;;;;1.93;0.97;;;;;;;25.32;35.83;98182.25;4975248;28;20219;-89
2022/04/23 08:56:42;;;;;;;2.23;1.27;;;;;;;25.21;35.09;98178.25;4974728;28;20291;-91
2022/04/23 08:59:12;;;;;;;1.17;0.70;;;;;;;25.20;35.64;98165.06;4957741;28;20211;-91
2022/04/23 09:01:38;;;;;;;2.50;1.30;;;;;;;25.44;35.10;98160.06;4967371;28;20249;-92
2022/04/23 09:04:08;;;;;;;1.97;1.23;;;;;;;25.59;34.27;98159.94;4955399;29;20305;-90
2022/04/23 09:06:43;;;;;;;5.43;1.53;;;;;;;25.71;35.83;98158.34;4938608;29;20213;-91
2022/04/23 09:09:13;;;;;;;3.13;1.10;;;;;;;25.87;34.22;98157.16;4954617;29;20169;-90
2022/04/23 09:11:51;;;;;;;1.63;1.03;;;;;;;26.05;33.89;98160.94;4954291;29;20181;-92
2022/04/23 09:14:33;;;;;;;11.77;5.23;;;;;;;26.29;34.50;98159.59;4938169;29;20196;-91
2022/04/23 09:25:37;;;;;;;2.97;1.67;;;;;;;26.74;32.04;98152.63;4955895;29;20172;-91
2022/04/23 09:28:18;;;;;;;7.70;1.90;;;;;;;26.62;34.04;98156.97;4955342;29;20169;-90
2022/04/23 09:31:02;;;;;;;;;;;;;;;;;;;;;
2022/04/23 09:33:55;;;;;;;2.20;1.20;;;;;;;26.92;33.14;98158.22;4955472;29;20586;-91
2022/04/23 09:36:49;;;;;;;2.45;0.95;;;;;;;27.03;33.22;98154.91;4939723;29;20191;-91
2022/04/23 09:39:38;;;;;;;16.55;7.97;;;;;;;27.10;32.24;98169.19;4923583;29;20188;-92
2022/04/23 09:42:19;;;;;;;8.85;2.22;;;;;;;27.13;31.91;98155.31;4955234;28;20161;-91
2022/04/23 09:44:47;;;;;;;1.33;0.95;;;;;;;27.46;31.33;98154.47;4937946;29;20172;-90
2022/04/23 09:47:30;;;;;;;4.93;0.73;;;;;;;27.64;30.20;98165.38;4953792;29;20606;-91
2022/04/23 09:49:57;;;;;;;2.17;1.20;;;;;;;27.27;29.65;98162.34;4956107;28;20188;-93
2022/04/23 09:52:32;;;;;;;2.97;0.93;;;;;;;27.33;31.75;98164.16;4958806;28;20323;-91
2022/04/23 09:55:02;;;;;;;4.50;1.30;;;;;;;27.49;32.66;98171.00;4941364;29;20809;-90
2022/04/23 09:57:31;;;;;;;1.52;0.90;;;;;;;27.65;29.51;98164.31;4956700;29;20181;-90
2022/04/23 09:59:57;;;;;;;1.20;0.73;;;;;;;27.63;31.01;98169.09;4955822;29;20625;-92
2022/04/23 10:02:40;;;;;;;2.08;1.13;;;;;;;27.71;29.93;98169.69;4940348;29;20271;-88
2022/04/23 10:05:26;;;;;;;2.53;0.75;;;;;;;27.94;29.95;98166.47;4940545;29;20598;-89
2022/04/23 10:07:59;;;;;;;4.05;1.48;;;;;;;28.14;30.75;98161.88;4959039;29;20166;-89
2022/04/23 10:10:33;;;;;;;5.03;0.95;;;;;;;27.82;30.15;98165.50;4958802;29;20161;-87
2022/04/23 10:13:02;;;;;;;3.03;1.23;;;;;;;27.60;30.91;98166.81;4958641;29;20687;-88
2022/04/23 10:15:54;;;;;;;4.93;2.10;;;;;;;27.90;32.57;98162.56;4958787;29;20516;-89
2022/04/23 10:18:24;;;;;;;10.35;4.53;;;;;;;28.10;31.78;98166.03;4941990;29;20169;-89
2022/04/23 10:20:55;;;;;;;2.97;1.17;;;;;;;28.16;30.66;98161.66;4910206;29;20696;-89
2022/04/23 10:23:50;;;;;;;3.70;1.15;;;;;;;28.35;30.78;98161.53;4958466;29;20493;-88
2022/04/23 10:26:50;;;;;;;5.03;1.10;;;;;;;28.38;30.55;98152.19;4957936;29;20185;-89
2022/04/23 10:29:22;;;;;;;1.60;0.77;;;;;;;28.53;30.06;98160.78;4957693;29;20188;-88
2022/04/23 10:32:20;;;;;;;5.10;2.42;;;;;;;28.68;29.52;98152.41;4940561;29;20560;-90
2022/04/23 10:34:48;;;;;;;4.88;1.73;;;;;;;28.78;29.44;98155.44;4976695;28;20199;-89
2022/04/23 10:37:27;;;;;;;3.83;1.05;;;;;;;28.98;29.24;98150.72;4958601;28;20214;-88
2022/04/23 10:40:14;;;;;;;2.75;1.10;;;;;;;29.03;29.90;98150.88;4957271;29;20509;-87
2022/04/23 10:43:10;;;;;;;2.95;1.08;;;;;;;29.15;29.47;98158.03;4957291;28;20173;-88
2022/04/23 10:45:40;;;;;;;2.55;0.90;;;;;;;29.18;30.07;98145.94;4957665;29;20177;-87
2022/04/23 10:48:43;;;;;;;3.85;1.70;;;;;;;29.26;29.00;98147.56;4958340;29;20181;-88
2022/04/23 10:51:11;;;;;;;3.35;1.35;;;;;;;29.42;30.20;98152.38;4948403;29;20196;-88
2022/04/23 10:53:39;;;;;;;2.65;1.10;;;;;;;29.58;29.38;98147.22;4954961;28;20192;-87
2022/04/23 10:56:13;;;;;;;4.20;1.08;;;;;;;29.42;29.52;98145.13;4955608;29;20193;-88
2022/04/23 10:58:42;;;;;;;2.17;0.85;;;;;;;29.20;30.78;98149.25;4958217;28;20161;-91
2022/04/23 11:01:27;;;;;;;1.73;0.85;;;;;;;29.46;29.63;98142.78;4957390;28;20177;-88
2022/04/23 11:03:59;;;;;;;2.83;1.25;;;;;;;29.70;28.20;98140.00;4949729;28;20182;-89
2022/04/23 11:12:27;;;;;;;4.00;1.52;;;;;;;29.51;29.15;98135.66;4942594;29;20645;-89
2022/04/23 11:14:56;;;;;;;3.40;1.38;;;;;;;29.54;28.93;98140.59;4953179;29;20198;-89
2022/04/23 11:17:45;;;;;;;2.60;0.98;;;;;;;29.87;27.17;98125.91;4957261;28;20215;-89
2022/04/23 11:20:12;;;;;;;4.35;1.20;;;;;;;30.11;29.01;98124.97;4957185;29;20172;-90
2022/04/23 11:22:37;;;;;;;4.93;1.10;;;;;;;30.19;28.06;98132.75;4943030;29;20178;-89
2022/04/23 11:25:03;;;;;;;4.53;1.55;;;;;;;30.41;28.31;98121.19;4934535;29;20192;-90
2022/04/23 11:27:36;;;;;;;3.22;1.00;;;;;;;30.22;27.67;98124.16;4938429;29;20181;-91
2022/04/23 11:30:04;;;;;;;3.78;1.60;;;;;;;30.22;27.46;98121.44;4939120;29;20194;-88
2022/04/23 11:32:34;;;;;;;1.88;0.82;;;;;;;30.34;26.78;98115.06;4956669;29;20173;-91
2022/04/23 11:35:05;;;;;;;3.42;0.90;;;;;;;30.47;28.12;98113.22;4956578;29;20559;-90
2022/04/23 11:37:36;;;;;;;1.02;0.55;;;;;;;30.31;26.15;98117.38;4956581;29;20564;-91
2022/04/23 11:40:08;;;;;;;2.25;0.77;;;;;;;30.12;27.57;98116.63;4955601;29;20239;-92
2022/04/23 11:42:44;;;;;;;3.33;0.80;;;;;;;30.19;28.10;98117.34;4937469;29;20551;-89
2022/04/23 11:45:12;;;;;;;3.95;0.70;;;;;;;30.31;28.00;98110.09;4955003;29;20235;-91
2022/04/23 11:47:37;;;;;;;1.95;0.80;;;;;;;30.65;28.17;98110.44;4937522;29;20591;-90
2022/04/23 11:50:11;;;;;;;3.47;0.75;;;;;;;30.79;27.76;98112.66;4955007;29;20181;-88
2022/04/23 11:52:39;;;;;;;1.48;0.60;;;;;;;30.71;26.57;98121.16;4955317;28;20286;-91
2022/04/23 11:55:20;;;;;;;3.42;1.35;;;;;;;30.83;27.28;98111.16;4906669;29;20665;-90
2022/04/23 11:57:57;;;;;;;12.32;2.00;;;;;;;31.03;26.97;98111.66;4937647;29;20165;-89
2022/04/23 12:00:26;;;;;;;2.45;0.70;;;;;;;31.13;27.13;98115.66;4956135;28;20200;-89
2022/04/23 12:02:54;;;;;;;2.70;0.80;;;;;;;31.33;27.16;98102.56;4938270;29;20220;-90
2022/04/23 12:05:31;;;;;;;2.83;0.70;;;;;;;31.29;25.94;98113.03;4952717;29;20684;-89
2022/04/23 12:07:58;;;;;;;2.83;1.02;;;;;;;31.14;25.96;98101.88;4952916;29;20172;-89
2022/04/23 12:10:29;;;;;;;3.35;1.15;;;;;;;31.16;26.77;98107.06;4935593;29;20185;-88
2022/04/23 12:12:58;;;;;;;2.28;1.00;;;;;;;31.46;25.34;98096.91;4951938;28;20188;-90
2022/04/23 12:15:24;;;;;;;5.00;0.98;;;;;;;31.61;25.70;98095.34;4952102;28;20212;-89
2022/04/23 12:17:52;;;;;;;1.60;0.70;;;;;;;31.72;25.67;98092.84;4952574;29;20248;-90
2022/04/23 12:20:22;;;;;;;6.70;0.77;;;;;;;31.70;27.30;98098.50;4953536;29;20176;-89
2022/04/23 12:22:59;;;;;;;6.72;1.35;;;;;;;31.80;25.77;98087.03;4935344;29;20665;-88
2022/04/23 12:25:27;;;;;;;4.15;1.10;;;;;;;31.72;25.21;98096.38;4952132;29;20243;-88